Time;durP1;ratioP1;P1;durP2;ratioP2;P2;SDS_P1;SDS_P2;PMS_P1;PMS_P2;Temp;Humidity;BMP_temperature;BMP_pressure;BME280_temperature;BME280_humidity;BME280_pressure;Samples;Min_cycle;Max_cycle;Signal;HPM_P1;HPM_P2
2022/09/29 00:00:51;;;;;;;8.13;7.33;;;6.20;99.90;;;;;;5035594;28;20191;-68
2022/09/29 00:03:17;;;;;;;8.30;7.30;;;6.20;99.90;;;;;;5035518;28;20179;-68
2022/09/29 00:05:51;;;;;;;7.87;7.07;;;6.20;99.90;;;;;;5035665;28;20171;-68
2022/09/29 00:08:19;;;;;;;7.90;7.20;;;6.20;99.90;;;;;;5055305;28;20174;-68
2022/09/29 00:10:46;;;;;;;8.67;7.53;;;6.10;99.90;;;;;;5054020;28;20194;-68
2022/09/29 00:13:12;;;;;;;10.57;7.43;;;6.20;99.90;;;;;;5055457;28;20665;-68
2022/09/29 00:15:38;;;;;;;10.17;7.00;;;6.20;99.90;;;;;;5055362;28;20165;-68
2022/09/29 00:18:04;;;;;;;8.53;7.40;;;6.20;99.90;;;;;;5058109;28;20198;-67
2022/09/29 00:20:30;;;;;;;8.43;7.17;;;6.20;99.90;;;;;;5057242;28;20198;-68
2022/09/29 00:22:56;;;;;;;7.83;7.17;;;6.10;99.90;;;;;;5057125;28;20171;-68
2022/09/29 00:25:21;;;;;;;10.43;7.87;;;6.10;99.90;;;;;;5055115;28;20206;-68
2022/09/29 00:27:47;;;;;;;8.60;7.70;;;6.10;99.90;;;;;;5050174;28;20183;-68
2022/09/29 00:30:13;;;;;;;9.27;7.50;;;6.10;99.90;;;;;;5033703;28;20201;-68
2022/09/29 00:32:39;;;;;;;8.20;7.37;;;6.10;99.90;;;;;;5034106;28;20238;-68
2022/09/29 00:35:07;;;;;;;8.33;7.53;;;6.00;99.90;;;;;;5034995;28;20171;-68
2022/09/29 00:37:33;;;;;;;8.67;7.80;;;6.00;99.90;;;;;;5048683;28;20185;-68
2022/09/29 00:40:00;;;;;;;9.17;7.67;;;6.00;99.90;;;;;;5055025;28;20194;-68
2022/09/29 00:42:26;;;;;;;8.53;7.70;;;6.00;99.90;;;;;;5053605;28;20256;-68
2022/09/29 00:45:22;;;;;;;8.60;7.20;;;6.00;99.90;;;;;;5054750;28;20617;-68
2022/09/29 00:48:16;;;;;;;9.07;7.53;;;6.00;99.90;;;;;;5053888;28;20589;-68
2022/09/29 00:50:52;;;;;;;8.57;7.37;;;5.90;99.90;;;;;;5054685;28;20597;-68
2022/09/29 00:53:21;;;;;;;8.60;7.70;;;5.90;99.90;;;;;;5054559;28;20642;-67
2022/09/29 00:55:55;;;;;;;10.07;7.70;;;5.90;99.90;;;;;;5054344;28;20669;-68
2022/09/29 00:58:35;;;;;;;8.30;7.50;;;5.80;99.90;;;;;;5044852;28;20186;-68
2022/09/29 01:01:02;;;;;;;8.00;7.20;;;5.90;99.90;;;;;;5034388;28;20560;-68
2022/09/29 01:03:32;;;;;;;8.90;8.00;;;5.90;99.90;;;;;;5033042;28;20206;-68
2022/09/29 01:06:02;;;;;;;8.63;7.70;;;5.90;99.90;;;;;;5034977;28;20254;-68
2022/09/29 01:08:46;;;;;;;7.97;7.20;;;5.80;99.90;;;;;;5054790;28;20193;-68
2022/09/29 01:11:14;;;;;;;8.50;7.63;;;5.80;99.90;;;;;;5052956;28;20228;-68
2022/09/29 01:13:41;;;;;;;7.77;6.97;;;5.80;99.90;;;;;;5054213;28;20185;-68
2022/09/29 01:16:07;;;;;;;8.40;7.60;;;5.70;99.90;;;;;;5052805;28;20270;-68
2022/09/29 01:18:33;;;;;;;8.80;7.47;;;5.60;99.90;;;;;;5054175;28;20206;-68
2022/09/29 01:21:20;;;;;;;8.53;7.63;;;5.60;99.90;;;;;;5053925;28;20268;-68
2022/09/29 01:24:04;;;;;;;8.93;7.73;;;5.60;99.90;;;;;;5053916;28;20201;-68
2022/09/29 01:26:55;;;;;;;11.00;7.33;;;5.50;99.90;;;;;;5052780;28;20182;-68
2022/09/29 01:29:58;;;;;;;8.83;7.10;;;5.50;99.90;;;;;;5035593;28;20219;-68
2022/09/29 01:32:34;;;;;;;8.83;7.23;;;5.40;99.90;;;;;;5032599;28;20179;-67
2022/09/29 01:35:23;;;;;;;8.17;7.43;;;5.30;99.90;;;;;;5032760;28;20175;-68
2022/09/29 01:37:49;;;;;;;7.63;6.93;;;5.30;99.90;;;;;;5049776;28;20186;-68
2022/09/29 01:40:19;;;;;;;10.00;7.73;;;5.20;99.90;;;;;;5052643;28;20251;-68
2022/09/29 01:43:11;;;;;;;7.73;6.93;;;5.20;99.90;;;;;;5054100;28;20167;-68
2022/09/29 01:45:43;;;;;;;7.80;7.10;;;5.30;99.90;;;;;;5053360;28;20218;-68
2022/09/29 01:48:24;;;;;;;9.53;7.33;;;5.20;99.90;;;;;;5053892;28;20167;-68
2022/09/29 01:50:54;;;;;;;8.23;7.43;;;5.20;99.90;;;;;;5053601;28;20243;-68
2022/09/29 01:53:27;;;;;;;8.30;7.50;;;5.20;99.90;;;;;;5053524;28;20648;-68
2022/09/29 01:55:59;;;;;;;7.63;6.87;;;5.20;99.90;;;;;;5053763;28;20159;-68
2022/09/29 01:58:33;;;;;;;7.97;7.17;;;5.20;99.90;;;;;;5043139;28;20190;-68
2022/09/29 02:01:03;;;;;;;9.73;7.17;;;5.20;99.90;;;;;;5032162;28;20322;-68
2022/09/29 02:03:31;;;;;;;7.70;6.90;;;5.20;99.90;;;;;;5032157;28;20233;-68
2022/09/29 02:06:05;;;;;;;9.07;7.17;;;5.20;99.90;;;;;;5033968;28;20579;-68
2022/09/29 02:08:41;;;;;;;9.00;7.87;;;5.20;99.90;;;;;;5051423;28;20162;-68
2022/09/29 02:11:09;;;;;;;8.27;7.50;;;5.20;99.90;;;;;;5053179;28;20194;-68
2022/09/29 02:13:44;;;;;;;9.20;7.40;;;5.30;99.90;;;;;;5053372;28;20186;-68
2022/09/29 02:16:13;;;;;;;8.53;7.60;;;5.20;99.90;;;;;;5053335;28;20690;-68
2022/09/29 02:19:18;;;;;;;8.40;7.60;;;5.10;99.90;;;;;;5053271;28;20171;-68
2022/09/29 02:21:44;;;;;;;8.43;7.53;;;5.20;99.90;;;;;;5053138;28;20268;-68
2022/09/29 02:24:11;;;;;;;8.03;7.23;;;5.00;99.90;;;;;;5053754;28;20202;-68
2022/09/29 02:26:37;;;;;;;8.57;7.20;;;5.00;99.90;;;;;;5051954;28;20175;-68
2022/09/29 02:29:05;;;;;;;9.33;7.93;;;5.00;99.90;;;;;;5037516;28;20643;-68
2022/09/29 02:31:32;;;;;;;7.70;6.90;;;4.90;99.90;;;;;;5033187;28;20201;-68
2022/09/29 02:34:00;;;;;;;8.00;7.20;;;4.80;99.90;;;;;;5033353;28;20171;-68
2022/09/29 02:36:41;;;;;;;9.10;7.10;;;4.80;99.90;;;;;;5037920;28;20198;-68
2022/09/29 02:39:19;;;;;;;8.53;7.63;;;4.90;99.90;;;;;;5053018;28;20232;-68
2022/09/29 02:42:08;;;;;;;10.07;7.63;;;4.90;99.90;;;;;;5053285;28;20250;-68
2022/09/29 02:44:51;;;;;;;8.53;7.67;;;4.90;99.90;;;;;;5051582;28;20218;-68
2022/09/29 02:47:16;;;;;;;8.43;7.63;;;4.90;99.90;;;;;;5051787;28;20183;-68
2022/09/29 02:49:49;;;;;;;8.87;7.83;;;5.00;99.90;;;;;;5052987;28;20227;-68
2022/09/29 02:52:25;;;;;;;11.43;8.40;;;5.00;99.90;;;;;;5051897;28;20511;-68
2022/09/29 02:55:07;;;;;;;9.83;8.53;;;5.00;99.90;;;;;;5052974;28;20174;-68
2022/09/29 02:57:44;;;;;;;9.07;8.10;;;5.00;99.90;;;;;;5048373;28;20561;-68
2022/09/29 03:00:14;;;;;;;10.13;8.70;;;4.90;99.90;;;;;;5032912;28;20198;-68
2022/09/29 03:02:42;;;;;;;10.47;9.03;;;5.00;99.90;;;;;;5033022;28;20210;-68
2022/09/29 03:05:10;;;;;;;9.13;8.20;;;5.00;99.90;;;;;;5031623;28;20207;-68
2022/09/29 03:07:37;;;;;;;10.13;8.83;;;4.90;99.90;;;;;;5045814;28;20178;-68
2022/09/29 03:10:04;;;;;;;10.27;9.20;;;4.90;99.90;;;;;;5052877;28;20317;-68
2022/09/29 03:12:29;;;;;;;12.80;9.77;;;4.90;99.90;;;;;;5053195;28;20163;-68
2022/09/29 03:14:55;;;;;;;11.90;9.30;;;4.90;99.90;;;;;;5051497;28;20186;-68
2022/09/29 03:17:22;;;;;;;11.33;9.33;;;4.90;99.90;;;;;;5052787;28;20181;-68
2022/09/29 03:19:48;;;;;;;15.27;9.43;;;4.90;99.90;;;;;;5055163;28;20736;-68
2022/09/29 03:22:14;;;;;;;10.20;9.20;;;4.80;99.90;;;;;;5055171;28;20278;-68
2022/09/29 03:24:40;;;;;;;10.70;8.43;;;4.80;99.90;;;;;;5056643;28;20285;-68
2022/09/29 03:27:08;;;;;;;10.23;8.87;;;4.90;99.90;;;;;;5056845;28;20216;-69
2022/09/29 03:29:34;;;;;;;10.27;9.17;;;4.80;99.90;;;;;;5015206;28;20695;-68
2022/09/29 03:32:00;;;;;;;11.80;8.77;;;4.80;99.90;;;;;;5016431;28;20175;-68
2022/09/29 03:34:26;;;;;;;15.37;9.43;;;4.80;99.90;;;;;;5015298;28;20721;-68
2022/09/29 03:36:52;;;;;;;11.70;9.70;;;4.70;99.90;;;;;;5032920;28;20249;-68
2022/09/29 03:39:18;;;;;;;15.13;10.00;;;4.70;99.90;;;;;;5054764;28;20250;-68
2022/09/29 03:41:44;;;;;;;15.10;8.37;;;4.70;99.90;;;;;;5056100;28;20182;-68
2022/09/29 03:44:09;;;;;;;9.47;8.47;;;4.70;99.90;;;;;;5055860;28;20198;-68
2022/09/29 03:46:35;;;;;;;11.80;8.83;;;4.70;99.90;;;;;;5055816;28;20268;-68
2022/09/29 03:49:01;;;;;;;14.70;8.40;;;4.70;99.90;;;;;;5054494;28;20174;-68
2022/09/29 03:51:26;;;;;;;10.20;7.83;;;4.70;99.90;;;;;;5055917;28;20194;-68
2022/09/29 03:53:53;;;;;;;8.50;7.60;;;4.80;99.90;;;;;;5055805;28;20179;-68
2022/09/29 03:56:19;;;;;;;8.90;7.60;;;4.80;99.90;;;;;;5054556;28;20229;-68
2022/09/29 03:58:44;;;;;;;13.23;8.67;;;4.70;99.90;;;;;;5042408;28;20183;-68
2022/09/29 04:01:10;;;;;;;17.57;9.67;;;4.70;99.90;;;;;;5035452;28;20278;-68
2022/09/29 04:03:36;;;;;;;9.70;8.47;;;4.70;99.90;;;;;;5035667;28;20569;-72
2022/09/29 04:06:02;;;;;;;12.03;8.40;;;4.80;99.90;;;;;;5036776;28;20163;-68
2022/09/29 04:08:27;;;;;;;11.07;8.60;;;4.70;99.90;;;;;;5055557;28;20167;-68
2022/09/29 04:10:53;;;;;;;14.97;9.27;;;4.70;99.90;;;;;;5055594;28;20564;-68
2022/09/29 04:13:20;;;;;;;9.93;8.10;;;4.60;99.90;;;;;;5055749;28;20170;-68
2022/09/29 04:15:49;;;;;;;9.63;8.63;;;4.60;99.90;;;;;;5054059;28;20179;-68
2022/09/29 04:18:16;;;;;;;9.30;8.40;;;4.50;99.90;;;;;;5055622;28;20174;-68
2022/09/29 04:20:41;;;;;;;9.50;8.53;;;4.50;99.90;;;;;;5055178;28;20585;-68
2022/09/29 04:23:07;;;;;;;10.13;8.90;;;4.40;99.90;;;;;;5055314;28;20174;-67
2022/09/29 04:25:33;;;;;;;11.03;8.80;;;4.40;99.90;;;;;;5055175;28;20775;-68
2022/09/29 04:27:59;;;;;;;10.53;8.30;;;4.40;99.90;;;;;;5048613;28;20187;-68
2022/09/29 04:30:25;;;;;;;10.10;8.70;;;4.40;99.90;;;;;;5034218;28;20196;-68
2022/09/29 04:32:50;;;;;;;11.37;9.60;;;4.40;99.90;;;;;;5033794;28;20176;-68
2022/09/29 04:35:16;;;;;;;11.53;9.20;;;4.40;99.90;;;;;;5034948;28;20172;-68
2022/09/29 04:37:42;;;;;;;9.83;8.77;;;4.40;99.90;;;;;;5050121;28;20253;-68
2022/09/29 04:40:08;;;;;;;10.83;8.90;;;4.20;99.90;;;;;;5054887;28;20218;-68
2022/09/29 04:42:34;;;;;;;13.00;9.17;;;4.30;99.90;;;;;;5055039;28;20655;-68
2022/09/29 04:45:00;;;;;;;11.07;9.27;;;4.20;99.90;;;;;;5055994;28;20198;-68
2022/09/29 04:47:26;;;;;;;10.90;8.57;;;4.20;99.90;;;;;;5056258;28;20179;-68
2022/09/29 04:49:51;;;;;;;11.87;9.67;;;4.20;99.90;;;;;;5055433;28;20674;-68
2022/09/29 04:52:17;;;;;;;9.70;8.60;;;4.20;99.90;;;;;;5055785;28;20175;-68
2022/09/29 04:54:43;;;;;;;9.73;8.70;;;4.10;99.90;;;;;;5054131;28;20179;-68
2022/09/29 04:57:09;;;;;;;12.00;9.37;;;4.10;99.90;;;;;;5054714;28;20178;-68
2022/09/29 04:59:35;;;;;;;11.97;9.03;;;4.20;99.90;;;;;;5034870;28;20201;-68
2022/09/29 05:02:01;;;;;;;11.70;9.53;;;4.20;99.90;;;;;;5033189;28;20610;-67
2022/09/29 05:04:26;;;;;;;12.73;10.10;;;4.20;99.90;;;;;;5034522;28;20198;-68
2022/09/29 05:06:52;;;;;;;12.50;9.73;;;4.20;99.90;;;;;;5042665;28;20225;-68
2022/09/29 05:09:18;;;;;;;10.27;8.77;;;4.20;99.90;;;;;;5054250;28;20198;-68
2022/09/29 05:11:43;;;;;;;13.40;10.00;;;4.10;99.90;;;;;;5054418;28;20175;-68
2022/09/29 05:14:10;;;;;;;10.50;9.40;;;4.00;99.90;;;;;;5054185;28;20171;-68
2022/09/29 05:16:35;;;;;;;10.83;9.20;;;3.90;99.90;;;;;;5054041;28;20541;-68
2022/09/29 05:19:01;;;;;;;11.50;9.50;;;3.90;99.90;;;;;;5054127;28;20182;-68
2022/09/29 05:21:27;;;;;;;10.40;9.23;;;3.90;99.90;;;;;;5054072;28;20252;-68
2022/09/29 05:23:53;;;;;;;10.43;9.10;;;3.80;99.90;;;;;;5054331;28;20264;-68
2022/09/29 05:26:18;;;;;;;11.73;9.70;;;3.80;99.90;;;;;;5053993;28;20166;-68
2022/09/29 05:28:46;;;;;;;11.07;9.37;;;3.80;99.90;;;;;;5041001;28;20709;-68
2022/09/29 05:31:13;;;;;;;15.00;10.20;;;3.80;99.90;;;;;;5033784;28;20183;-68
2022/09/29 05:33:39;;;;;;;14.50;10.90;;;3.90;99.90;;;;;;5033960;28;20171;-68
2022/09/29 05:36:10;;;;;;;19.43;11.47;;;3.80;99.90;;;;;;5035562;28;20179;-67
2022/09/29 05:38:37;;;;;;;14.33;10.30;;;3.80;99.90;;;;;;5054138;28;20642;-67
2022/09/29 05:41:05;;;;;;;15.17;9.83;;;3.90;99.90;;;;;;5054272;28;20551;-68
2022/09/29 05:43:30;;;;;;;13.07;10.17;;;3.90;99.90;;;;;;5052427;28;20182;-68
2022/09/29 05:46:01;;;;;;;13.40;9.20;;;3.80;99.90;;;;;;5052548;28;20668;-67
2022/09/29 05:48:30;;;;;;;20.50;10.20;;;3.90;99.90;;;;;;5053566;28;20178;-67
2022/09/29 05:50:57;;;;;;;16.93;9.33;;;3.90;99.90;;;;;;5053551;28;20195;-67
2022/09/29 05:53:23;;;;;;;10.30;8.80;;;3.90;99.90;;;;;;5055317;28;20202;-68
2022/09/29 05:55:49;;;;;;;10.77;8.47;;;4.00;99.90;;;;;;5055790;28;20163;-67
2022/09/29 05:58:15;;;;;;;10.60;8.83;;;4.00;99.90;;;;;;5046332;28;20183;-67
2022/09/29 06:00:41;;;;;;;13.00;9.77;;;4.10;99.90;;;;;;5032582;28;20294;-67
2022/09/29 06:03:07;;;;;;;12.20;10.20;;;4.10;99.90;;;;;;5033629;28;20309;-67
2022/09/29 06:05:37;;;;;;;13.93;10.17;;;4.10;99.90;;;;;;5033682;28;20246;-67
2022/09/29 06:08:03;;;;;;;13.27;10.47;;;4.10;99.90;;;;;;5050056;28;20194;-67
2022/09/29 06:10:29;;;;;;;13.23;11.57;;;4.20;99.90;;;;;;5053452;28;20191;-67
2022/09/29 06:12:55;;;;;;;13.57;11.33;;;4.10;99.90;;;;;;5053952;28;20627;-68
2022/09/29 06:15:22;;;;;;;15.23;12.00;;;4.10;99.90;;;;;;5053248;28;20548;-67
2022/09/29 06:17:57;;;;;;;10.83;9.70;;;4.10;99.90;;;;;;5053248;28;20184;-67
2022/09/29 06:20:23;;;;;;;13.00;11.53;;;4.20;99.90;;;;;;5053441;28;20624;-67
2022/09/29 06:22:52;;;;;;;14.00;10.73;;;4.20;99.90;;;;;;5053261;28;20663;-67
2022/09/29 06:25:17;;;;;;;12.07;10.83;;;4.20;99.90;;;;;;5053408;28;20710;-68
2022/09/29 06:27:43;;;;;;;11.83;10.47;;;4.20;99.90;;;;;;5048376;28;20210;-67
2022/09/29 06:30:11;;;;;;;13.53;10.40;;;4.40;99.90;;;;;;5033201;28;20195;-67
2022/09/29 06:32:37;;;;;;;10.70;9.60;;;4.50;99.90;;;;;;5033034;28;20258;-67
2022/09/29 06:37:49;;;;;;;12.70;10.43;;;4.50;99.90;;;;;;5048900;28;20623;-68
2022/09/29 06:40:15;;;;;;;11.70;10.50;;;4.60;99.90;;;;;;5051724;28;20626;-68
2022/09/29 06:42:41;;;;;;;12.53;10.07;;;4.60;99.90;;;;;;5051801;28;20191;-68
2022/09/29 06:45:08;;;;;;;10.00;9.00;;;4.70;99.90;;;;;;5052857;28;20260;-68
2022/09/29 06:47:34;;;;;;;10.73;9.30;;;4.80;99.90;;;;;;5052708;28;20660;-67
2022/09/29 06:50:00;;;;;;;11.40;9.80;;;4.90;99.90;;;;;;5053283;28;20199;-68
2022/09/29 06:52:26;;;;;;;13.40;10.70;;;5.00;99.90;;;;;;5052932;28;20686;-68
2022/09/29 06:54:52;;;;;;;14.33;10.43;;;5.10;99.90;;;;;;5055383;28;20258;-67
2022/09/29 06:57:18;;;;;;;13.20;10.43;;;5.20;99.90;;;;;;5056060;28;20627;-68
2022/09/29 06:59:44;;;;;;;12.97;11.17;;;5.40;99.90;;;;;;5036806;28;20202;-67
2022/09/29 07:02:10;;;;;;;13.53;11.00;;;5.50;99.90;;;;;;5035405;28;20187;-68
2022/09/29 07:04:36;;;;;;;16.93;12.47;;;5.60;99.90;;;;;;5036649;28;20207;-68
2022/09/29 07:07:02;;;;;;;14.93;12.40;;;5.80;99.90;;;;;;5044700;28;20562;-68
2022/09/29 07:09:28;;;;;;;18.13;12.87;;;5.90;99.90;;;;;;5056421;28;20182;-68
2022/09/29 07:11:53;;;;;;;16.60;12.60;;;6.10;99.90;;;;;;5057062;28;20357;-68
2022/09/29 07:14:21;;;;;;;13.13;11.10;;;6.10;99.90;;;;;;5055257;28;20182;-68
2022/09/29 07:16:47;;;;;;;17.07;12.23;;;6.20;99.90;;;;;;5056297;28;20178;-68
2022/09/29 07:19:14;;;;;;;12.77;10.97;;;6.30;99.90;;;;;;5056448;28;20182;-68
2022/09/29 07:21:39;;;;;;;14.43;11.80;;;6.40;99.90;;;;;;5056606;28;20205;-68
2022/09/29 07:24:05;;;;;;;13.67;11.43;;;6.50;99.90;;;;;;5056639;28;20671;-70
2022/09/29 07:26:31;;;;;;;15.40;12.57;;;6.70;99.90;;;;;;5056331;28;20564;-74
2022/09/29 07:28:57;;;;;;;15.43;12.13;;;6.80;99.90;;;;;;5041560;28;20226;-74
2022/09/29 07:31:23;;;;;;;15.97;12.77;;;7.00;99.90;;;;;;5036056;28;20281;-69
2022/09/29 07:33:49;;;;;;;16.87;13.53;;;7.10;99.90;;;;;;5036216;28;20175;-70
2022/09/29 07:36:18;;;;;;;15.77;12.80;;;7.30;99.90;;;;;;5037893;28;20187;-69
2022/09/29 07:38:51;;;;;;;19.40;15.37;;;7.40;99.90;;;;;;5054860;28;20201;-70
2022/09/29 07:41:19;;;;;;;16.03;13.50;;;7.50;99.90;;;;;;5055075;28;20203;-69
2022/09/29 07:43:45;;;;;;;22.10;15.67;;;7.60;99.90;;;;;;5056144;28;20267;-70
2022/09/29 07:46:11;;;;;;;19.20;15.77;;;7.90;99.90;;;;;;5054584;28;20243;-69
2022/09/29 07:48:37;;;;;;;20.60;15.73;;;8.20;99.90;;;;;;5056368;28;20178;-70
2022/09/29 07:51:15;;;;;;;24.87;16.57;;;8.40;99.90;;;;;;5056332;28;20639;-69
2022/09/29 07:53:41;;;;;;;19.20;14.17;;;8.60;99.90;;;;;;5056076;28;20185;-69
2022/09/29 07:56:21;;;;;;;15.53;13.03;;;8.40;99.90;;;;;;5055784;28;20720;-70
2022/09/29 07:58:49;;;;;;;14.10;11.83;;;8.50;99.90;;;;;;5040905;28;20191;-70
2022/09/29 08:01:15;;;;;;;18.43;12.50;;;8.50;99.90;;;;;;5035430;28;20554;-69
2022/09/29 08:03:50;;;;;;;16.03;12.73;;;8.60;99.90;;;;;;5035901;28;20284;-69
2022/09/29 08:06:16;;;;;;;15.77;12.67;;;8.60;99.90;;;;;;5036289;28;20232;-69
2022/09/29 08:08:42;;;;;;;16.30;13.03;;;8.80;99.90;;;;;;5055728;28;20174;-71
2022/09/29 08:11:14;;;;;;;16.33;13.20;;;9.10;99.90;;;;;;5054523;28;20611;-69
2022/09/29 08:13:40;;;;;;;21.30;13.80;;;9.20;99.90;;;;;;5055724;28;20177;-69
2022/09/29 08:16:10;;;;;;;15.00;12.93;;;9.50;99.90;;;;;;5055264;28;20253;-68
2022/09/29 08:18:36;;;;;;;15.20;12.30;;;9.70;99.90;;;;;;5055673;28;20166;-68
2022/09/29 08:21:03;;;;;;;16.77;12.00;;;9.90;99.90;;;;;;5055145;28;20205;-68
2022/09/29 08:23:30;;;;;;;17.83;11.57;;;9.90;99.90;;;;;;5054423;28;20171;-65
2022/09/29 08:26:01;;;;;;;14.43;11.47;;;9.80;99.90;;;;;;5054240;28;20595;-65
2022/09/29 08:28:28;;;;;;;14.47;11.40;;;9.80;99.90;;;;;;5044394;28;20233;-65
2022/09/29 08:30:54;;;;;;;13.70;11.33;;;10.00;99.90;;;;;;5035104;28;20227;-65
2022/09/29 08:33:20;;;;;;;15.93;11.87;;;10.20;99.90;;;;;;5035065;28;20519;-65
2022/09/29 08:35:45;;;;;;;18.03;11.37;;;10.40;99.90;;;;;;5035563;28;20254;-69
2022/09/29 08:38:11;;;;;;;23.27;11.70;;;10.60;99.90;;;;;;5053907;28;20210;-69
2022/09/29 08:40:37;;;;;;;16.40;11.70;;;10.80;99.90;;;;;;5055458;28;20259;-70
2022/09/29 08:43:19;;;;;;;16.07;11.53;;;10.90;99.90;;;;;;5054916;28;20175;-69
2022/09/29 08:46:06;;;;;;;13.90;11.77;;;11.10;99.90;;;;;;5053445;28;20198;-68
2022/09/29 08:48:38;;;;;;;14.87;10.63;;;11.20;99.90;;;;;;5054758;28;20158;-69
2022/09/29 08:51:11;;;;;;;13.53;10.23;;;11.30;99.90;;;;;;5054967;28;20202;-69
2022/09/29 08:53:45;;;;;;;13.67;10.50;;;11.50;99.90;;;;;;5054783;28;20163;-68
2022/09/29 08:56:16;;;;;;;17.53;10.53;;;11.60;99.90;;;;;;5055103;28;20628;-69
2022/09/29 08:58:42;;;;;;;12.77;9.40;;;11.60;99.90;;;;;;5041777;28;20269;-69
2022/09/29 09:01:26;;;;;;;9.77;8.63;;;11.60;99.90;;;;;;5034575;28;20345;-69
2022/09/29 09:04:00;;;;;;;10.80;9.30;;;11.50;99.90;;;;;;5034560;28;20191;-70
2022/09/29 09:06:32;;;;;;;11.03;9.20;;;11.50;99.90;;;;;;5037680;28;20186;-70
2022/09/29 09:09:28;;;;;;;13.20;9.50;;;11.50;99.90;;;;;;5054408;28;20241;-70
2022/09/29 09:12:06;;;;;;;9.77;8.70;;;11.50;99.90;;;;;;5053521;28;20558;-72
2022/09/29 09:15:03;;;;;;;12.10;9.57;;;11.70;99.90;;;;;;5054322;28;20261;-70
2022/09/29 09:17:50;;;;;;;12.40;9.77;;;11.90;99.90;;;;;;5053943;28;20178;-71
2022/09/29 09:20:25;;;;;;;13.30;9.40;;;12.10;99.90;;;;;;5023012;28;20210;-73
2022/09/29 09:22:50;;;;;;;12.30;9.70;;;12.30;99.90;;;;;;5054360;28;20193;-71
2022/09/29 09:25:27;;;;;;;10.00;8.90;;;12.30;99.90;;;;;;5054052;28;20242;-78
2022/09/29 09:28:17;;;;;;;12.43;8.33;;;12.30;99.90;;;;;;5050390;28;20190;-78
2022/09/29 09:31:20;;;;;;;9.63;8.73;;;12.30;99.90;;;;;;5033608;28;20199;-78
2022/09/29 09:34:02;;;;;;;11.50;8.57;;;12.20;99.90;;;;;;5033397;28;20236;-78
2022/09/29 09:36:32;;;;;;;11.43;9.10;;;12.30;99.90;;;;;;5038174;28;20236;-77
2022/09/29 09:39:35;;;;;;;10.07;8.97;;;12.40;99.90;;;;;;5053093;28;20273;-78
2022/09/29 09:42:07;;;;;;;10.77;8.97;;;12.50;99.90;;;;;;5054900;28;20174;-78
2022/09/29 09:44:49;;;;;;;11.17;9.23;;;12.60;99.90;;;;;;5053039;28;20221;-77
2022/09/29 09:47:28;;;;;;;12.00;9.10;;;12.60;99.90;;;;;;5053970;28;20170;-67
2022/09/29 09:50:01;;;;;;;9.53;8.53;;;12.60;99.90;;;;;;5052239;28;20201;-67
2022/09/29 09:52:39;;;;;;;11.27;8.60;;;12.60;99.90;;;;;;5052266;28;20181;-67
2022/09/29 09:55:13;;;;;;;11.00;9.50;;;12.70;99.90;;;;;;5052270;28;20182;-67
2022/09/29 09:58:06;;;;;;;9.70;8.13;;;12.70;99.90;;;;;;5049400;28;20194;-67
2022/09/29 10:00:46;;;;;;;8.80;7.87;;;12.80;99.90;;;;;;5033741;28;20203;-67
2022/09/29 10:03:15;;;;;;;12.73;8.67;;;12.80;99.90;;;;;;5033467;28;20166;-66
2022/09/29 10:05:44;;;;;;;11.90;9.37;;;12.90;99.90;;;;;;5034695;28;20206;-73
2022/09/29 10:08:12;;;;;;;10.80;9.33;;;12.90;99.90;;;;;;5052914;28;20292;-79
2022/09/29 10:10:41;;;;;;;11.13;8.18;;;13.00;99.90;;;;;;5056740;28;20209;-80
2022/09/29 10:13:12;;;;;;;11.97;8.90;;;13.10;99.90;;;;;;5055005;28;20275;-76
2022/09/29 10:16:00;;;;;;;11.77;8.88;;;13.30;99.90;;;;;;5053075;28;20538;-65
2022/09/29 10:18:40;;;;;;;10.20;7.13;;;13.40;99.90;;;;;;5053296;28;20550;-64
2022/09/29 10:21:24;;;;;;;8.80;7.85;;;13.40;99.90;;;;;;5053342;28;20205;-64
2022/09/29 10:23:51;;;;;;;9.02;7.57;;;13.60;99.90;;;;;;5053170;28;20217;-64
2022/09/29 10:26:24;;;;;;;10.27;7.60;;;13.80;99.90;;;;;;5053853;28;20167;-68
2022/09/29 10:29:00;;;;;;;7.70;6.90;;;13.90;99.90;;;;;;5040286;28;20179;-68
2022/09/29 10:31:32;;;;;;;8.55;7.45;;;14.00;99.90;;;;;;5036018;28;20202;-68
2022/09/29 10:34:09;;;;;;;8.65;7.78;;;14.10;99.90;;;;;;5037734;28;20166;-68
2022/09/29 10:36:55;;;;;;;7.28;6.13;;;14.20;99.90;;;;;;5042959;28;20269;-68
2022/09/29 10:39:39;;;;;;;6.50;5.78;;;14.20;99.90;;;;;;5057425;28;20522;-68
2022/09/29 10:42:20;;;;;;;6.35;5.20;;;14.30;99.90;;;;;;5057761;28;20624;-68
2022/09/29 10:45:14;;;;;;;6.43;5.55;;;14.30;99.90;;;;;;5057122;28;20674;-68
2022/09/29 10:47:43;;;;;;;6.13;4.80;;;14.30;99.90;;;;;;5055043;28;20682;-68
2022/09/29 10:50:22;;;;;;;6.25;5.30;;;14.10;99.90;;;;;;5055375;28;20202;-68
2022/09/29 10:52:59;;;;;;;5.45;4.95;;;14.00;99.90;;;;;;5056275;28;20239;-69
2022/09/29 10:55:46;;;;;;;7.65;5.28;;;13.80;99.90;;;;;;5055009;28;20175;-69
2022/09/29 10:58:26;;;;;;;4.95;4.47;;;13.60;99.90;;;;;;5047657;28;20253;-69
2022/09/29 11:01:06;;;;;;;5.03;4.53;;;13.50;99.90;;;;;;5036065;28;20191;-67
2022/09/29 11:03:34;;;;;;;5.63;5.05;;;13.30;99.90;;;;;;5036290;28;20243;-68
2022/09/29 11:06:13;;;;;;;5.20;4.70;;;13.20;99.90;;;;;;5037112;28;20175;-68
2022/09/29 11:08:57;;;;;;;5.55;4.90;;;13.10;99.90;;;;;;5056436;28;20576;-68
2022/09/29 11:11:29;;;;;;;5.55;4.65;;;13.30;99.90;;;;;;5055867;28;20229;-68
2022/09/29 11:13:56;;;;;;;6.93;4.28;;;13.50;99.90;;;;;;5061016;28;20166;-68
2022/09/29 11:16:34;;;;;;;4.93;4.22;;;13.90;99.90;;;;;;5059690;28;20175;-68
2022/09/29 11:19:03;;;;;;;6.25;4.28;;;14.20;99.90;;;;;;5056625;28;20151;-68
2022/09/29 11:21:40;;;;;;;4.88;3.83;;;14.60;99.90;;;;;;5056442;28;20198;-64
2022/09/29 11:24:09;;;;;;;5.38;4.25;;;14.80;99.90;;;;;;5056004;28;20186;-64
2022/09/29 11:27:13;;;;;;;5.35;4.07;;;15.10;99.90;;;;;;5054429;28;20178;-64
2022/09/29 11:30:08;;;;;;;5.97;4.03;;;15.30;99.90;;;;;;5016242;28;20742;-65
2022/09/29 11:32:52;;;;;;;4.40;3.63;;;15.60;99.90;;;;;;5003147;28;20187;-69
2022/09/29 11:35:45;;;;;;;5.65;3.88;;;15.90;99.90;;;;;;5014592;28;20222;-69
2022/09/29 11:38:25;;;;;;;4.55;4.00;;;16.00;99.90;;;;;;5053237;28;20189;-64
2022/09/29 11:40:57;;;;;;;6.68;3.55;;;16.10;99.90;;;;;;5055347;28;20217;-64
2022/09/29 11:43:49;;;;;;;4.00;3.60;;;16.40;99.90;;;;;;5055475;28;20320;-64
2022/09/29 11:46:33;;;;;;;5.93;3.70;;;16.20;99.90;;;;;;5053735;28;20198;-65
2022/09/29 11:49:17;;;;;;;5.10;3.40;;;16.20;99.90;;;;;;5055516;28;20493;-65
2022/09/29 11:51:49;;;;;;;5.18;3.80;;;16.50;99.90;;;;;;5055479;28;20611;-65
2022/09/29 11:54:39;;;;;;;5.82;3.88;;;16.40;99.90;;;;;;5053935;28;20651;-65
2022/09/29 11:57:43;;;;;;;6.28;4.30;;;16.20;99.90;;;;;;5055098;28;20571;-65
2022/09/29 12:00:21;;;;;;;4.53;3.70;;;16.30;99.90;;;;;;5015190;28;20195;-65
2022/09/29 12:02:50;;;;;;;5.22;4.00;;;16.50;99.90;;;;;;5014993;28;20158;-65
2022/09/29 12:05:24;;;;;;;3.78;3.45;;;16.60;99.90;;;;;;5013777;28;20227;-65
2022/09/29 12:08:05;;;;;;;7.45;3.90;;;16.70;99.90;;;;;;5047016;28;20193;-65
2022/09/29 12:10:42;;;;;;;4.75;3.67;;;16.60;99.90;;;;;;5054730;28;20225;-65
2022/09/29 12:13:22;;;;;;;4.55;3.80;;;16.70;99.90;;;;;;5054755;28;20165;-65
2022/09/29 12:15:50;;;;;;;3.45;3.15;;;16.90;99.90;;;;;;5053284;28;20175;-64
2022/09/29 12:18:25;;;;;;;5.60;3.80;;;16.80;99.90;;;;;;5054506;28;20178;-65
2022/09/29 12:20:53;;;;;;;3.97;3.45;;;16.50;99.90;;;;;;5054711;28;20273;-65
2022/09/29 12:23:23;;;;;;;5.18;3.65;;;16.10;99.90;;;;;;5054432;28;20174;-65
2022/09/29 12:25:58;;;;;;;3.67;3.17;;;15.60;99.90;;;;;;5054390;28;20206;-65
2022/09/29 12:28:31;;;;;;;4.63;3.45;;;15.30;99.90;;;;;;5044133;28;20182;-65
2022/09/29 12:31:03;;;;;;;5.53;3.47;;;15.10;99.90;;;;;;5034498;28;20195;-66
2022/09/29 12:34:02;;;;;;;4.30;3.65;;;14.70;99.90;;;;;;5033078;28;20190;-65
2022/09/29 12:37:01;;;;;;;3.70;3.40;;;14.30;99.90;;;;;;5031269;28;20203;-65
2022/09/29 12:39:45;;;;;;;4.55;3.28;;;14.20;99.90;;;;;;5054508;28;20230;-65
2022/09/29 12:42:38;;;;;;;4.85;3.40;;;14.30;99.90;;;;;;5054190;28;20599;-65
2022/09/29 12:45:25;;;;;;;7.57;4.20;;;14.30;99.90;;;;;;5054009;28;20221;-65
2022/09/29 12:48:11;;;;;;;5.80;3.58;;;14.10;99.90;;;;;;5054040;28;20209;-65
2022/09/29 12:51:08;;;;;;;4.72;3.75;;;13.90;99.90;;;;;;5053931;28;20190;-64
2022/09/29 12:53:40;;;;;;;4.15;3.70;;;13.80;99.90;;;;;;5050319;28;20197;-65
2022/09/29 12:56:25;;;;;;;4.38;3.55;;;13.70;99.90;;;;;;5052484;28;20181;-65
2022/09/29 12:58:57;;;;;;;6.18;3.97;;;13.60;99.90;;;;;;5038543;28;20213;-64
2022/09/29 13:01:32;;;;;;;4.00;3.60;;;13.50;99.90;;;;;;5033594;28;20284;-65
2022/09/29 13:04:18;;;;;;;3.20;3.00;;;13.50;99.90;;;;;;5033593;28;20191;-65
2022/09/29 13:07:06;;;;;;;4.43;3.40;;;13.60;99.90;;;;;;5040154;28;20659;-65
2022/09/29 13:09:41;;;;;;;5.32;3.40;;;13.70;99.90;;;;;;5053484;28;20568;-65
2022/09/29 13:12:25;;;;;;;3.47;3.17;;;13.80;99.90;;;;;;5053989;28;20162;-65
2022/09/29 13:15:02;;;;;;;4.13;3.47;;;14.00;99.90;;;;;;5052161;28;20178;-65